createdAt,value
2023-03-10T00:01:21.586Z,12.75
2023-03-10T00:03:44.762Z,13.57
2023-03-10T00:06:09.066Z,11.43
2023-03-10T00:08:31.845Z,11.00
2023-03-10T00:10:54.480Z,11.82
2023-03-10T00:13:17.066Z,14.38
2023-03-10T00:15:39.820Z,14.07
2023-03-10T00:18:02.318Z,16.67
2023-03-10T00:20:24.989Z,15.87
2023-03-10T00:22:47.719Z,13.35
2023-03-10T00:25:11.003Z,15.57
2023-03-10T00:27:33.921Z,13.73
2023-03-10T00:29:57.481Z,14.13
2023-03-10T00:32:20.187Z,14.93
2023-03-10T00:34:42.887Z,12.48
2023-03-10T00:37:05.609Z,11.88
2023-03-10T00:39:29.228Z,13.32
2023-03-10T00:41:51.918Z,11.25
2023-03-10T00:44:14.988Z,11.17
2023-03-10T00:46:38.884Z,11.45
2023-03-10T00:49:02.363Z,13.27
2023-03-10T00:51:25.208Z,10.50
2023-03-10T00:53:47.916Z,12.25
2023-03-10T00:56:16.832Z,10.90
2023-03-10T00:58:40.885Z,11.32
2023-03-10T01:01:05.816Z,12.30
2023-03-10T01:03:29.442Z,11.15
2023-03-10T01:05:53.205Z,13.98
2023-03-10T01:08:16.246Z,11.37
2023-03-10T01:10:38.800Z,10.43
2023-03-10T01:13:01.495Z,14.02
2023-03-10T01:15:24.144Z,13.40
2023-03-10T01:17:46.915Z,12.20
2023-03-10T01:20:14.042Z,12.43
2023-03-10T01:22:37.708Z,11.63
2023-03-10T01:25:00.380Z,17.30
2023-03-10T01:27:23.089Z,15.35
2023-03-10T01:29:45.910Z,15.45
2023-03-10T01:32:08.686Z,15.00
2023-03-10T01:34:31.583Z,18.13
2023-03-10T01:36:54.357Z,14.70
2023-03-10T01:39:16.971Z,15.07
2023-03-10T01:41:41.069Z,17.90
2023-03-10T01:44:04.943Z,16.13
2023-03-10T01:46:27.586Z,16.80
2023-03-10T01:48:52.044Z,17.27
2023-03-10T01:51:15.343Z,17.33
2023-03-10T01:53:38.051Z,15.05
2023-03-10T01:56:03.874Z,15.73
2023-03-10T01:58:34.620Z,16.05
2023-03-10T02:00:57.586Z,16.33
2023-03-10T02:03:25.917Z,15.35
2023-03-10T02:06:01.261Z,17.42
2023-03-10T02:08:26.705Z,14.47
2023-03-10T02:10:50.985Z,15.70
2023-03-10T02:13:13.599Z,17.67
2023-03-10T02:15:37.855Z,18.98
2023-03-10T02:18:02.175Z,16.10
2023-03-10T02:20:44.349Z,18.57
2023-03-10T02:23:11.150Z,19.38
2023-03-10T02:25:48.859Z,15.85
2023-03-10T02:28:11.653Z,16.42
2023-03-10T02:30:38.751Z,20.05
2023-03-10T02:33:27.153Z,17.67
2023-03-10T02:35:51.567Z,18.88
2023-03-10T02:38:19.057Z,23.23
2023-03-10T02:40:50.048Z,19.95
2023-03-10T02:43:28.685Z,19.17
2023-03-10T02:46:01.865Z,23.67
2023-03-10T02:48:35.336Z,21.90
2023-03-10T02:51:03.523Z,18.55
2023-03-10T02:53:28.013Z,16.95
2023-03-10T02:55:51.336Z,17.95
2023-03-10T02:58:15.393Z,18.33
2023-03-10T03:00:39.823Z,18.20
2023-03-10T03:03:03.862Z,16.83
2023-03-10T03:05:26.794Z,17.40
2023-03-10T03:07:49.552Z,22.17
2023-03-10T03:10:12.893Z,21.00
2023-03-10T03:12:36.038Z,20.90
2023-03-10T03:14:58.584Z,18.90
2023-03-10T03:17:21.405Z,18.90
2023-03-10T03:19:44.384Z,20.73
2023-03-10T03:22:07.184Z,22.03
2023-03-10T03:24:32.137Z,21.20
2023-03-10T03:26:54.883Z,18.13
2023-03-10T03:29:20.722Z,22.65
2023-03-10T03:31:43.504Z,19.98
2023-03-10T03:34:13.749Z,24.83
2023-03-10T03:36:38.102Z,24.27
2023-03-10T03:39:02.357Z,23.13
2023-03-10T03:41:27.477Z,22.38
2023-03-10T03:43:50.249Z,24.58
2023-03-10T03:46:12.936Z,21.27
2023-03-10T03:48:36.509Z,24.15
2023-03-10T03:51:03.087Z,24.85
2023-03-10T03:53:33.262Z,24.60
2023-03-10T03:55:55.869Z,23.70
2023-03-10T03:58:21.358Z,25.73
2023-03-10T04:00:44.111Z,25.13
2023-03-10T04:03:07.350Z,26.20
2023-03-10T04:05:30.682Z,24.85
2023-03-10T04:07:53.835Z,24.30
2023-03-10T04:10:19.673Z,25.20
2023-03-10T04:12:43.317Z,26.42
2023-03-10T04:15:08.370Z,26.70
2023-03-10T04:17:31.169Z,26.50
2023-03-10T04:20:06.277Z,24.75
2023-03-10T04:22:30.688Z,25.73
2023-03-10T04:24:54.190Z,26.52
2023-03-10T04:27:17.154Z,25.45
2023-03-10T04:29:40.759Z,23.83
2023-03-10T04:32:05.926Z,25.65
2023-03-10T04:34:33.606Z,24.67
2023-03-10T04:36:56.480Z,28.23
2023-03-10T04:39:19.926Z,22.92
2023-03-10T04:41:42.692Z,22.35
2023-03-10T04:44:05.832Z,22.83
2023-03-10T04:46:31.886Z,25.67
2023-03-10T04:48:56.015Z,25.50
2023-03-10T04:51:18.631Z,24.42
2023-03-10T04:53:44.596Z,23.75
2023-03-10T04:56:28.626Z,26.15
2023-03-10T04:58:51.805Z,22.97
2023-03-10T05:01:16.199Z,24.13
2023-03-10T05:03:44.754Z,25.42
2023-03-10T05:06:17.560Z,23.50
2023-03-10T05:08:45.159Z,24.67
2023-03-10T05:11:08.994Z,26.93
2023-03-10T05:13:32.244Z,23.50
2023-03-10T05:15:55.599Z,25.08
2023-03-10T05:18:18.374Z,20.05
2023-03-10T05:20:41.048Z,29.92
2023-03-10T05:23:03.955Z,25.93
2023-03-10T05:25:26.598Z,23.52
2023-03-10T05:27:49.324Z,24.33
2023-03-10T05:30:15.593Z,21.60
2023-03-10T05:32:40.984Z,26.70
2023-03-10T05:35:04.900Z,27.03
2023-03-10T05:37:29.024Z,27.48
2023-03-10T05:39:51.732Z,30.05
2023-03-10T05:42:17.607Z,28.05
2023-03-10T05:44:43.347Z,25.52
2023-03-10T05:47:07.203Z,24.37
2023-03-10T05:49:30.977Z,26.48
2023-03-10T05:51:54.161Z,26.55
2023-03-10T05:54:17.357Z,24.23
2023-03-10T05:56:40.122Z,26.55
2023-03-10T05:59:03.968Z,26.20
2023-03-10T06:01:30.236Z,24.67
2023-03-10T06:03:53.093Z,24.38
2023-03-10T06:06:15.878Z,22.65
2023-03-10T06:08:38.610Z,21.75
2023-03-10T06:11:01.667Z,21.90
2023-03-10T06:13:25.767Z,21.60
2023-03-10T06:15:56.095Z,22.60
2023-03-10T06:18:19.875Z,22.65
2023-03-10T06:20:42.660Z,21.95
2023-03-10T06:23:06.365Z,20.93
2023-03-10T06:25:29.053Z,21.48
2023-03-10T06:27:51.823Z,23.38
2023-03-10T06:30:15.253Z,21.02
2023-03-10T06:32:38.050Z,22.33
2023-03-10T06:35:00.801Z,22.30
2023-03-10T06:37:23.523Z,21.05
2023-03-10T06:39:46.164Z,23.42
2023-03-10T06:42:09.650Z,21.23
2023-03-10T06:44:32.736Z,23.52
2023-03-10T06:46:55.553Z,23.23
2023-03-10T06:49:18.238Z,18.15
2023-03-10T06:51:43.753Z,20.33
2023-03-10T06:54:06.842Z,20.73
2023-03-10T06:56:29.866Z,17.25
2023-03-10T06:58:52.684Z,18.17
2023-03-10T07:01:34.495Z,17.23
2023-03-10T07:03:58.769Z,18.55
2023-03-10T07:06:24.427Z,15.95
2023-03-10T07:08:47.785Z,16.95
2023-03-10T07:11:11.224Z,16.00
2023-03-10T07:13:36.295Z,15.93
2023-03-10T07:16:06.773Z,15.73
2023-03-10T07:18:31.612Z,16.17
2023-03-10T07:20:56.415Z,19.15
2023-03-10T07:23:19.217Z,16.47
2023-03-10T07:25:42.004Z,16.45
2023-03-10T07:28:05.578Z,18.42
2023-03-10T07:30:28.195Z,16.67
2023-03-10T07:32:53.817Z,18.77
2023-03-10T07:35:16.567Z,15.40
2023-03-10T07:37:41.747Z,16.63
2023-03-10T07:40:06.135Z,16.88
2023-03-10T07:42:30.442Z,17.77
2023-03-10T07:44:54.354Z,16.35
2023-03-10T07:47:17.631Z,19.93
2023-03-10T07:49:46.563Z,18.73
2023-03-10T07:52:09.429Z,17.10
2023-03-10T07:54:32.148Z,18.50
2023-03-10T07:56:54.900Z,17.23
2023-03-10T07:59:17.681Z,16.23
2023-03-10T08:01:40.420Z,14.88
2023-03-10T08:04:06.094Z,12.90
2023-03-10T08:06:33.091Z,16.80
2023-03-10T08:09:05.899Z,13.95
2023-03-10T08:11:28.834Z,15.53
2023-03-10T08:13:51.884Z,18.30
2023-03-10T08:16:18.765Z,14.27
2023-03-10T08:18:43.202Z,16.55
2023-03-10T08:21:07.093Z,17.42
2023-03-10T08:23:29.809Z,15.50
2023-03-10T08:25:52.673Z,17.98
2023-03-10T08:28:15.753Z,15.38
2023-03-10T08:30:56.970Z,15.82
2023-03-10T08:33:22.889Z,14.52
2023-03-10T08:35:45.597Z,15.83
2023-03-10T08:38:10.401Z,15.77
2023-03-10T08:40:33.161Z,16.75
2023-03-10T08:42:55.991Z,14.98
2023-03-10T08:45:19.338Z,16.85
2023-03-10T08:47:42.256Z,16.80
2023-03-10T08:50:06.899Z,15.57
2023-03-10T08:52:29.970Z,14.68
2023-03-10T08:54:53.110Z,16.77
2023-03-10T08:57:15.839Z,14.48
2023-03-10T08:59:38.704Z,14.47
2023-03-10T09:02:01.979Z,15.30
2023-03-10T09:04:25.068Z,14.00
2023-03-10T09:06:47.730Z,14.50
2023-03-10T09:09:12.264Z,21.95
2023-03-10T09:11:38.929Z,25.40
2023-03-10T09:14:03.268Z,29.73
2023-03-10T09:16:28.717Z,26.35
2023-03-10T09:18:51.488Z,25.52
2023-03-10T09:21:16.088Z,24.88
2023-03-10T09:23:41.805Z,21.73
2023-03-10T09:26:04.657Z,17.88
2023-03-10T09:28:27.392Z,20.65
2023-03-10T09:30:51.171Z,17.90
2023-03-10T09:33:18.347Z,15.00
2023-03-10T09:35:41.719Z,15.87
2023-03-10T09:38:12.985Z,15.55
2023-03-10T09:40:37.885Z,15.63
2023-03-10T09:43:04.655Z,16.00
2023-03-10T09:45:55.472Z,14.80
2023-03-10T09:48:27.955Z,13.83
2023-03-10T09:50:52.878Z,15.70
2023-03-10T09:53:33.686Z,16.80
2023-03-10T09:55:57.670Z,14.00
2023-03-10T09:58:35.877Z,13.38
2023-03-10T10:01:01.016Z,10.43
2023-03-10T10:03:52.084Z,10.23
2023-03-10T10:06:21.189Z,8.18
2023-03-10T10:08:54.913Z,8.77
2023-03-10T10:11:25.134Z,10.10
2023-03-10T10:13:48.387Z,8.80
2023-03-10T10:16:34.637Z,6.60
2023-03-10T10:19:06.410Z,7.43
2023-03-10T10:21:43.369Z,7.13
2023-03-10T10:24:06.961Z,7.97
2023-03-10T10:26:29.811Z,8.37
2023-03-10T10:29:00.494Z,5.75
2023-03-10T10:31:29.177Z,7.78
2023-03-10T10:33:56.672Z,6.13
2023-03-10T10:36:20.058Z,7.32
2023-03-10T10:38:52.998Z,7.40
2023-03-10T10:41:21.618Z,6.80
2023-03-10T10:43:46.155Z,7.15
2023-03-10T10:46:09.830Z,8.88
2023-03-10T10:48:48.966Z,9.23
2023-03-10T10:51:29.259Z,8.00
2023-03-10T10:53:52.207Z,8.35
2023-03-10T10:56:18.775Z,8.25
2023-03-10T10:58:46.438Z,7.50
2023-03-10T11:01:16.783Z,7.43
2023-03-10T11:03:48.046Z,8.93
2023-03-10T11:06:32.421Z,8.45
2023-03-10T11:09:07.888Z,6.40
2023-03-10T11:11:37.595Z,6.03
2023-03-10T11:14:00.201Z,7.80
2023-03-10T11:16:31.985Z,8.83
2023-03-10T11:19:17.796Z,9.25
2023-03-10T11:21:45.466Z,9.70
2023-03-10T11:24:26.042Z,9.32
2023-03-10T11:26:51.376Z,9.85
2023-03-10T11:29:21.645Z,8.90
2023-03-10T11:32:09.230Z,7.28
2023-03-10T11:34:36.127Z,10.02
2023-03-10T11:37:27.465Z,8.50
2023-03-10T11:40:16.010Z,9.40
2023-03-10T11:43:14.237Z,9.57
2023-03-10T11:45:42.820Z,8.98
2023-03-10T11:48:40.534Z,10.38
2023-03-10T11:51:06.096Z,8.70
2023-03-10T11:53:44.282Z,9.13
2023-03-10T11:56:11.498Z,8.60
2023-03-10T11:58:56.101Z,9.00
2023-03-10T12:01:27.187Z,8.25
2023-03-10T12:04:08.226Z,9.82
2023-03-10T12:06:45.845Z,10.48
2023-03-10T12:09:30.102Z,9.57
2023-03-10T12:11:54.327Z,9.02
2023-03-10T12:14:18.100Z,8.55
2023-03-10T12:16:42.086Z,8.88
2023-03-10T12:19:06.307Z,9.20
2023-03-10T12:21:31.885Z,10.73
2023-03-10T12:23:56.834Z,9.50
2023-03-10T12:26:37.863Z,10.95
2023-03-10T12:29:20.649Z,9.75
2023-03-10T12:31:47.464Z,7.07
2023-03-10T12:34:14.438Z,7.63
2023-03-10T12:36:39.618Z,11.52
2023-03-10T12:39:38.577Z,9.00
2023-03-10T12:42:26.379Z,8.10
2023-03-10T12:45:07.472Z,8.88
2023-03-10T12:47:50.900Z,7.90
2023-03-10T12:50:24.667Z,10.25
2023-03-10T12:52:54.151Z,7.57
2023-03-10T12:55:29.548Z,8.85
2023-03-10T12:58:16.919Z,8.45
2023-03-10T13:01:01.998Z,7.87
2023-03-10T13:03:48.677Z,7.05
2023-03-10T13:06:11.310Z,5.15
2023-03-10T13:08:39.777Z,8.00
2023-03-10T13:11:03.867Z,5.57
2023-03-10T13:13:34.373Z,7.33
2023-03-10T13:16:05.723Z,8.07
2023-03-10T13:18:28.864Z,10.60
2023-03-10T13:20:51.514Z,6.60
2023-03-10T13:23:24.496Z,6.13
2023-03-10T13:26:01.779Z,5.50
2023-03-10T13:28:27.311Z,6.68
2023-03-10T13:30:50.064Z,5.47
2023-03-10T13:33:27.354Z,7.85
2023-03-10T13:35:50.563Z,5.18
2023-03-10T13:38:17.769Z,5.10
2023-03-10T13:41:05.245Z,7.78
2023-03-10T13:43:38.414Z,6.60
2023-03-10T13:46:03.316Z,6.40
2023-03-10T13:48:27.913Z,7.10
2023-03-10T13:51:23.728Z,6.10
2023-03-10T13:53:55.963Z,6.13
2023-03-10T13:56:25.007Z,6.85
2023-03-10T13:58:49.766Z,6.97
2023-03-10T14:01:25.889Z,6.15
2023-03-10T14:03:53.944Z,7.77
2023-03-10T14:06:16.830Z,7.07
2023-03-10T14:08:39.638Z,5.22
2023-03-10T14:11:30.161Z,6.57
2023-03-10T14:13:53.961Z,7.05
2023-03-10T14:16:16.678Z,6.20
2023-03-10T14:18:41.711Z,6.38
2023-03-10T14:21:33.237Z,8.48
2023-03-10T14:24:02.373Z,7.70
2023-03-10T14:26:25.099Z,6.55
2023-03-10T14:28:47.909Z,8.20
2023-03-10T14:31:24.627Z,7.22
2023-03-10T14:33:48.083Z,8.27
2023-03-10T14:36:12.282Z,6.57
2023-03-10T14:38:35.185Z,7.75
2023-03-10T14:40:57.823Z,6.63
2023-03-10T14:43:26.148Z,9.00
2023-03-10T14:45:50.337Z,7.82
2023-03-10T14:48:22.290Z,5.82
2023-03-10T14:50:46.204Z,9.38
2023-03-10T14:53:16.590Z,10.00
2023-03-10T14:55:40.516Z,9.73
2023-03-10T14:58:04.654Z,7.95
2023-03-10T15:00:27.841Z,7.68
2023-03-10T15:02:50.486Z,7.40
2023-03-10T15:05:21.786Z,8.90
2023-03-10T15:07:44.951Z,7.82
2023-03-10T15:10:11.838Z,7.68
2023-03-10T15:12:35.348Z,7.30
2023-03-10T15:14:59.012Z,7.80
2023-03-10T15:17:22.354Z,7.63
2023-03-10T15:19:45.469Z,6.85
2023-03-10T15:22:08.185Z,9.70
2023-03-10T15:24:30.956Z,8.00
2023-03-10T15:26:53.671Z,5.60
2023-03-10T15:29:19.718Z,5.70
2023-03-10T15:31:42.842Z,7.72
2023-03-10T15:34:06.591Z,5.95
2023-03-10T15:36:32.741Z,5.95
2023-03-10T15:38:55.324Z,6.75
2023-03-10T15:41:18.031Z,6.10
2023-03-10T15:43:40.718Z,6.00
2023-03-10T15:46:07.987Z,6.45
2023-03-10T15:48:31.969Z,6.65
2023-03-10T15:50:54.752Z,6.47
2023-03-10T15:53:17.544Z,6.80
2023-03-10T15:55:42.224Z,6.55
2023-03-10T15:58:04.811Z,6.63
2023-03-10T16:00:27.697Z,6.10
2023-03-10T16:02:51.174Z,5.53
2023-03-10T16:05:14.529Z,6.87
2023-03-10T16:07:37.477Z,5.70
2023-03-10T16:10:00.183Z,5.15
2023-03-10T16:12:23.481Z,5.30
2023-03-10T16:14:46.113Z,6.60
2023-03-10T16:17:11.657Z,5.50
2023-03-10T16:19:34.416Z,5.93
2023-03-10T16:21:57.215Z,6.95
2023-03-10T16:24:22.225Z,6.90
2023-03-10T16:26:45.511Z,5.82
2023-03-10T16:29:09.297Z,6.77
2023-03-10T16:31:32.220Z,6.63
2023-03-10T16:33:56.076Z,6.43
2023-03-10T16:36:21.125Z,6.75
2023-03-10T16:38:44.942Z,7.72
2023-03-10T16:41:09.534Z,9.90
2023-03-10T16:43:32.785Z,7.97
2023-03-10T16:46:09.980Z,5.85
2023-03-10T16:48:33.618Z,6.82
2023-03-10T16:50:56.396Z,7.43
2023-03-10T16:53:19.010Z,6.70
2023-03-10T16:55:42.552Z,7.97
2023-03-10T16:58:05.175Z,6.18
2023-03-10T17:00:28.121Z,6.40
2023-03-10T17:02:50.905Z,5.93
2023-03-10T17:05:15.472Z,5.77
2023-03-10T17:07:43.488Z,5.90
2023-03-10T17:10:16.408Z,6.32
2023-03-10T17:12:39.235Z,6.88
2023-03-10T17:15:02.236Z,5.90
2023-03-10T17:17:25.855Z,3.77
2023-03-10T17:19:51.225Z,4.63
2023-03-10T17:22:14.105Z,7.80
2023-03-10T17:24:36.875Z,4.25
2023-03-10T17:27:00.433Z,4.35
2023-03-10T17:29:23.155Z,8.23
2023-03-10T17:31:50.528Z,4.68
2023-03-10T17:34:13.982Z,5.05
2023-03-10T17:36:36.646Z,4.63
2023-03-10T17:39:01.324Z,5.00
2023-03-10T17:41:24.637Z,5.60
2023-03-10T17:43:48.544Z,5.53
2023-03-10T17:46:15.104Z,5.82
2023-03-10T17:48:38.415Z,5.68
2023-03-10T17:51:01.851Z,5.90
2023-03-10T17:53:26.114Z,6.33
2023-03-10T17:55:48.913Z,5.50
2023-03-10T17:58:11.622Z,5.93
2023-03-10T18:00:34.473Z,4.68
2023-03-10T18:02:58.778Z,5.38
2023-03-10T18:05:21.631Z,5.97
2023-03-10T18:07:44.370Z,5.35
2023-03-10T18:10:08.752Z,6.13
2023-03-10T18:12:31.712Z,5.78
2023-03-10T18:14:54.678Z,6.63
2023-03-10T18:17:17.339Z,6.97
2023-03-10T18:19:41.254Z,2.63
2023-03-10T18:22:05.754Z,3.08
2023-03-10T18:24:29.460Z,3.20
2023-03-10T18:26:52.057Z,7.53
2023-03-10T18:29:15.300Z,4.93
2023-03-10T18:31:39.903Z,7.95
2023-03-10T18:34:03.959Z,8.05
2023-03-10T18:36:27.512Z,9.75
2023-03-10T18:38:51.626Z,10.43
2023-03-10T18:41:18.730Z,14.63
2023-03-10T18:43:41.460Z,7.38
2023-03-10T18:46:04.629Z,7.85
2023-03-10T18:48:28.682Z,8.55
2023-03-10T18:50:52.818Z,6.60
2023-03-10T18:53:15.435Z,9.63
2023-03-10T18:55:39.004Z,7.05
2023-03-10T18:58:01.995Z,7.93
2023-03-10T19:00:25.207Z,5.18
2023-03-10T19:02:50.580Z,7.20
2023-03-10T19:05:15.266Z,7.13
2023-03-10T19:07:38.673Z,7.80
2023-03-10T19:10:02.193Z,8.15
2023-03-10T19:12:25.872Z,6.68
2023-03-10T19:14:53.428Z,8.70
2023-03-10T19:17:15.985Z,5.37
2023-03-10T19:19:39.099Z,4.30
2023-03-10T19:22:02.735Z,3.83
2023-03-10T19:24:25.602Z,5.43
2023-03-10T19:26:49.681Z,4.68
2023-03-10T19:29:12.820Z,4.03
2023-03-10T19:31:35.862Z,4.22
2023-03-10T19:33:59.123Z,5.63
2023-03-10T19:36:24.131Z,6.38
2023-03-10T19:38:47.416Z,4.20
2023-03-10T19:41:16.147Z,4.27
2023-03-10T19:43:39.234Z,3.88
2023-03-10T19:46:04.469Z,3.38
2023-03-10T19:48:28.967Z,5.55
2023-03-10T19:50:56.599Z,5.43
2023-03-10T19:53:22.285Z,4.50
2023-03-10T19:55:45.176Z,4.30
2023-03-10T19:58:08.348Z,6.97
2023-03-10T20:00:36.010Z,4.95
2023-03-10T20:02:59.084Z,5.20
2023-03-10T20:05:23.177Z,6.33
2023-03-10T20:07:46.719Z,5.03
2023-03-10T20:10:10.691Z,4.65
2023-03-10T20:12:33.823Z,4.97
2023-03-10T20:15:00.278Z,5.75
2023-03-10T20:17:23.280Z,4.37
2023-03-10T20:19:47.925Z,4.93
2023-03-10T20:22:11.623Z,4.90
2023-03-10T20:24:34.402Z,4.60
2023-03-10T20:26:59.015Z,4.32
2023-03-10T20:29:21.974Z,4.53
2023-03-10T20:31:45.177Z,4.63
2023-03-10T20:34:17.423Z,5.70
2023-03-10T20:36:40.286Z,6.20
2023-03-10T20:39:03.243Z,7.32
2023-03-10T20:41:26.855Z,9.63
2023-03-10T20:43:50.410Z,13.75
2023-03-10T20:46:13.935Z,12.95
2023-03-10T20:48:37.272Z,12.50
2023-03-10T20:51:01.987Z,10.52
2023-03-10T20:53:25.175Z,11.63
2023-03-10T20:55:48.170Z,9.82
2023-03-10T20:58:11.059Z,9.20
2023-03-10T21:00:33.850Z,7.63
2023-03-10T21:02:57.440Z,5.70
2023-03-10T21:05:21.110Z,5.83
2023-03-10T21:07:43.815Z,5.97
2023-03-10T21:10:08.161Z,5.38
2023-03-10T21:12:31.311Z,5.70
2023-03-10T21:14:54.433Z,5.18
2023-03-10T21:17:16.984Z,3.50
2023-03-10T21:19:40.348Z,4.20
2023-03-10T21:22:03.567Z,3.00
2023-03-10T21:24:26.463Z,5.00
2023-03-10T21:26:49.066Z,4.30
2023-03-10T21:29:12.168Z,4.20
2023-03-10T21:31:35.110Z,3.40
2023-03-10T21:33:57.791Z,5.10
2023-03-10T21:36:23.372Z,3.03
2023-03-10T21:38:50.036Z,4.70
2023-03-10T21:41:15.870Z,5.03
2023-03-10T21:43:38.530Z,4.32
2023-03-10T21:46:01.255Z,3.45
2023-03-10T21:48:23.939Z,2.95
2023-03-10T21:50:46.572Z,7.70
2023-03-10T21:53:09.296Z,9.40
2023-03-10T21:55:34.553Z,11.63
2023-03-10T21:57:57.293Z,10.35
2023-03-10T22:00:23.086Z,10.05
2023-03-10T22:02:46.300Z,10.43
2023-03-10T22:05:11.549Z,10.67
2023-03-10T22:07:34.658Z,9.45
2023-03-10T22:09:57.351Z,12.43
2023-03-10T22:12:19.976Z,10.65
2023-03-10T22:14:43.025Z,10.73
2023-03-10T22:17:06.089Z,7.50
2023-03-10T22:19:29.029Z,8.07
2023-03-10T22:21:51.623Z,9.88
2023-03-10T22:24:14.137Z,7.32
2023-03-10T22:26:37.678Z,8.85
2023-03-10T22:29:00.812Z,7.33
2023-03-10T22:31:23.855Z,6.68
2023-03-10T22:33:46.563Z,7.50
2023-03-10T22:36:12.559Z,6.30
2023-03-10T22:38:35.354Z,8.40
2023-03-10T22:40:58.231Z,8.50
2023-03-10T22:43:20.872Z,8.35
2023-03-10T22:45:43.399Z,8.50
2023-03-10T22:48:06.901Z,7.57
2023-03-10T22:50:37.374Z,6.70
2023-03-10T22:53:01.017Z,7.30
2023-03-10T22:55:25.099Z,8.52
2023-03-10T22:57:47.679Z,7.07
2023-03-10T23:00:15.637Z,7.20
2023-03-10T23:02:38.287Z,7.07
2023-03-10T23:05:00.932Z,7.57
2023-03-10T23:07:23.490Z,6.38
2023-03-10T23:09:46.138Z,7.82
2023-03-10T23:12:09.694Z,8.68
2023-03-10T23:14:32.232Z,5.15
2023-03-10T23:16:54.826Z,5.63
2023-03-10T23:19:17.432Z,6.07
2023-03-10T23:21:40.010Z,4.68
2023-03-10T23:24:02.910Z,4.00
2023-03-10T23:26:25.871Z,3.40
2023-03-10T23:28:49.584Z,4.53
2023-03-10T23:31:15.645Z,3.72
2023-03-10T23:33:39.628Z,4.18
2023-03-10T23:36:02.235Z,2.20
2023-03-10T23:38:26.034Z,1.90
2023-03-10T23:40:48.902Z,2.50
2023-03-10T23:43:12.788Z,2.33
2023-03-10T23:45:37.626Z,4.18
2023-03-10T23:48:02.484Z,1.73
2023-03-10T23:50:33.847Z,1.45
2023-03-10T23:52:56.921Z,1.60
2023-03-10T23:55:22.737Z,1.90
2023-03-10T23:57:45.401Z,3.08
